createdAt,value
2018-09-05T00:02:21.559Z,85.39
2018-09-05T00:04:50.154Z,85.15
2018-09-05T00:07:18.836Z,85.50
2018-09-05T00:09:47.245Z,85.06
2018-09-05T00:12:15.777Z,85.68
2018-09-05T00:14:44.988Z,85.28
2018-09-05T00:17:13.525Z,85.34
2018-09-05T00:19:42.120Z,85.42
2018-09-05T00:22:10.545Z,85.42
2018-09-05T00:24:39.376Z,85.85
2018-09-05T00:27:07.917Z,85.58
2018-09-05T00:29:36.498Z,86.21
2018-09-05T00:32:05.188Z,85.41
2018-09-05T00:34:33.628Z,86.18
2018-09-05T00:37:08.689Z,85.17
2018-09-05T00:39:37.324Z,85.48
2018-09-05T00:42:05.914Z,85.13
2018-09-05T00:44:35.198Z,85.08
2018-09-05T00:47:03.692Z,85.35
2018-09-05T00:49:32.132Z,85.38
2018-09-05T00:52:00.776Z,85.29
2018-09-05T00:54:29.335Z,85.49
2018-09-05T00:56:58.006Z,86.12
2018-09-05T00:59:26.476Z,85.36
2018-09-05T01:01:55.268Z,85.53
2018-09-05T01:04:23.948Z,85.95
2018-09-05T01:06:53.084Z,85.66
2018-09-05T01:09:21.720Z,85.82
2018-09-05T01:11:50.888Z,86.08
2018-09-05T01:14:19.457Z,85.45
2018-09-05T01:16:47.959Z,86.34
2018-09-05T01:19:23.160Z,85.56
2018-09-05T01:21:52.501Z,85.87
2018-09-05T01:24:20.967Z,86.00
2018-09-05T01:26:49.558Z,86.61
2018-09-05T01:29:19.408Z,85.55
2018-09-05T01:31:48.705Z,85.68
2018-09-05T01:34:17.222Z,86.10
2018-09-05T01:36:45.688Z,85.54
2018-09-05T01:39:14.814Z,86.34
2018-09-05T01:41:43.232Z,86.23
2018-09-05T01:44:11.817Z,86.36
2018-09-05T01:46:40.908Z,86.02
2018-09-05T01:49:09.686Z,85.59
2018-09-05T01:51:38.151Z,86.14
2018-09-05T01:54:07.014Z,86.06
2018-09-05T01:56:35.450Z,86.08
2018-09-05T01:59:03.883Z,86.42
2018-09-05T02:01:32.375Z,85.51
2018-09-05T02:04:00.894Z,85.56
2018-09-05T02:06:29.729Z,85.85
2018-09-05T02:08:58.266Z,86.05
2018-09-05T02:11:26.925Z,85.90
2018-09-05T02:13:55.820Z,86.63
2018-09-05T02:16:24.917Z,85.94
2018-09-05T02:18:53.522Z,85.87
2018-09-05T02:21:22.146Z,86.63
2018-09-05T02:23:51.673Z,86.14
2018-09-05T02:26:20.709Z,86.42
2018-09-05T02:28:49.328Z,85.98
2018-09-05T02:31:18.341Z,86.70
2018-09-05T02:33:46.878Z,85.81
2018-09-05T02:36:15.369Z,87.13
2018-09-05T02:38:44.008Z,86.85
2018-09-05T02:41:12.668Z,86.10
2018-09-05T02:43:46.950Z,86.19
2018-09-05T02:46:15.594Z,86.32
2018-09-05T02:48:44.201Z,86.11
2018-09-05T02:51:13.236Z,86.32
2018-09-05T02:53:41.753Z,86.28
2018-09-05T02:56:10.472Z,86.66
2018-09-05T02:58:39.506Z,87.05
2018-09-05T03:01:08.179Z,86.33
2018-09-05T03:03:36.644Z,86.81
2018-09-05T03:06:05.330Z,86.59
2018-09-05T03:08:33.868Z,86.59
2018-09-05T03:11:02.380Z,86.35
2018-09-05T03:13:31.537Z,86.51
2018-09-05T03:16:00.437Z,87.19
2018-09-05T03:18:28.936Z,87.16
2018-09-05T03:20:57.540Z,87.38
2018-09-05T03:23:27.211Z,86.75
2018-09-05T03:25:55.973Z,86.55
2018-09-05T03:28:25.163Z,87.42
2018-09-05T03:30:53.639Z,86.75
2018-09-05T03:33:22.113Z,87.38
2018-09-05T03:35:50.611Z,87.36
2018-09-05T03:38:19.102Z,86.64
2018-09-05T03:40:47.682Z,86.82
2018-09-05T03:43:16.294Z,88.18
2018-09-05T03:45:44.859Z,87.90
2018-09-05T03:48:13.373Z,87.22
2018-09-05T03:50:42.217Z,87.82
2018-09-05T03:53:10.753Z,87.49
2018-09-05T03:55:39.246Z,87.93
2018-09-05T03:58:08.049Z,87.81
2018-09-05T04:00:36.951Z,87.89
2018-09-05T04:03:06.327Z,87.27
2018-09-05T04:05:35.569Z,87.54
2018-09-05T04:08:04.224Z,87.42
2018-09-05T04:10:32.702Z,87.51
2018-09-05T04:13:01.179Z,87.76
2018-09-05T04:15:29.639Z,87.73
2018-09-05T04:17:58.490Z,87.58
2018-09-05T04:20:27.048Z,87.67
2018-09-05T04:22:55.527Z,87.91
2018-09-05T04:25:24.069Z,87.75
2018-09-05T04:27:52.733Z,88.11
2018-09-05T04:30:21.203Z,87.69
2018-09-05T04:32:49.604Z,87.59
2018-09-05T04:35:18.237Z,87.94
2018-09-05T04:37:46.780Z,88.13
2018-09-05T04:40:15.244Z,88.61
2018-09-05T04:42:44.284Z,88.68
2018-09-05T04:45:12.745Z,88.71
2018-09-05T04:47:41.183Z,88.61
2018-09-05T04:50:09.768Z,88.76
2018-09-05T04:52:38.412Z,88.05
2018-09-05T04:55:07.607Z,89.22
2018-09-05T04:57:36.057Z,88.91
2018-09-05T05:00:04.738Z,88.94
2018-09-05T05:02:34.084Z,88.42
2018-09-05T05:05:02.666Z,88.05
2018-09-05T05:07:31.317Z,88.67
2018-09-05T05:10:00.507Z,88.97
2018-09-05T05:12:29.076Z,89.39
2018-09-05T05:14:57.474Z,88.32
2018-09-05T05:17:26.684Z,87.80
2018-09-05T05:19:55.706Z,89.19
2018-09-05T05:22:24.223Z,88.74
2018-09-05T05:24:53.877Z,88.87
2018-09-05T05:27:22.440Z,88.34
2018-09-05T05:29:50.879Z,88.14
2018-09-05T05:32:19.536Z,88.58
2018-09-05T05:34:48.003Z,88.39
2018-09-05T05:37:17.009Z,89.02
2018-09-05T05:39:45.442Z,89.49
2018-09-05T05:42:14.512Z,88.86
2018-09-05T05:44:43.141Z,89.21
2018-09-05T05:47:11.774Z,88.59
2018-09-05T05:49:40.361Z,88.77
2018-09-05T05:52:09.100Z,89.03
2018-09-05T05:54:38.640Z,89.33
2018-09-05T05:57:07.347Z,88.69
2018-09-05T05:59:36.083Z,88.95
2018-09-05T06:02:05.308Z,89.37
2018-09-05T06:04:33.747Z,89.72
2018-09-05T06:07:02.321Z,88.88
2018-09-05T06:09:30.882Z,88.86
2018-09-05T06:11:59.537Z,88.99
2018-09-05T06:14:28.056Z,89.16
2018-09-05T06:16:56.534Z,88.92
2018-09-05T06:19:25.502Z,89.07
2018-09-05T06:21:54.050Z,89.12
2018-09-05T06:24:22.632Z,89.96
2018-09-05T06:26:51.177Z,89.08
2018-09-05T06:29:20.391Z,89.39
2018-09-05T06:31:48.950Z,89.35
2018-09-05T06:34:18.025Z,88.97
2018-09-05T06:36:53.255Z,89.44
2018-09-05T06:39:21.761Z,89.79
2018-09-05T06:41:50.221Z,89.32
2018-09-05T06:44:18.660Z,89.67
2018-09-05T06:46:47.335Z,88.82
2018-09-05T06:49:15.750Z,89.02
2018-09-05T06:51:44.374Z,89.21
2018-09-05T06:54:12.993Z,89.06
2018-09-05T06:56:42.680Z,88.83
2018-09-05T06:59:11.221Z,89.11
2018-09-05T07:01:40.112Z,88.39
2018-09-05T07:04:08.538Z,89.53
2018-09-05T07:06:37.936Z,89.04
2018-09-05T07:09:09.644Z,89.28
2018-09-05T07:11:38.635Z,88.92
2018-09-05T07:14:13.786Z,88.91
2018-09-05T07:16:42.216Z,88.48
2018-09-05T07:19:12.331Z,89.46
2018-09-05T07:21:40.855Z,88.53
2018-09-05T07:24:09.877Z,88.26
2018-09-05T07:26:38.649Z,88.41
2018-09-05T07:29:07.139Z,88.12
2018-09-05T07:31:35.675Z,87.30
2018-09-05T07:34:04.383Z,87.13
2018-09-05T07:36:32.878Z,87.33
2018-09-05T07:39:01.349Z,86.25
2018-09-05T07:41:30.681Z,86.08
2018-09-05T07:43:59.210Z,86.55
2018-09-05T07:46:27.670Z,86.15
2018-09-05T07:48:57.231Z,85.33
2018-09-05T07:51:25.832Z,84.11
2018-09-05T07:53:54.304Z,84.62
2018-09-05T07:56:23.034Z,83.93
2018-09-05T07:58:51.505Z,84.08
2018-09-05T08:01:20.001Z,82.89
2018-09-05T08:03:48.469Z,82.93
2018-09-05T08:06:16.942Z,83.92
2018-09-05T08:08:46.165Z,83.39
2018-09-05T08:11:15.067Z,83.53
2018-09-05T08:13:43.819Z,83.07
2018-09-05T08:16:12.532Z,82.02
2018-09-05T08:18:41.316Z,82.69
2018-09-05T08:21:10.028Z,81.41
2018-09-05T08:23:38.867Z,82.25
2018-09-05T08:26:07.389Z,82.33
2018-09-05T08:28:36.058Z,82.21
2018-09-05T08:31:04.521Z,80.07
2018-09-05T08:33:33.123Z,79.70
2018-09-05T08:36:02.083Z,80.14
2018-09-05T08:38:30.356Z,78.85
2018-09-05T08:40:59.685Z,79.35
2018-09-05T08:43:28.389Z,78.52
2018-09-05T08:45:57.021Z,78.75
2018-09-05T08:48:26.307Z,78.43
2018-09-05T08:50:54.764Z,77.69
2018-09-05T08:53:23.329Z,77.85
2018-09-05T08:55:52.343Z,78.08
2018-09-05T08:58:20.835Z,77.19
2018-09-05T09:00:49.375Z,76.67
2018-09-05T09:03:18.349Z,75.63
2018-09-05T09:05:46.907Z,75.51
2018-09-05T09:08:15.637Z,77.92
2018-09-05T09:10:47.516Z,77.50
2018-09-05T09:13:16.360Z,77.28
2018-09-05T09:15:49.719Z,74.92
2018-09-05T09:18:19.540Z,75.07
2018-09-05T09:20:48.278Z,75.50
2018-09-05T09:23:16.930Z,76.71
2018-09-05T09:25:45.981Z,75.94
2018-09-05T09:28:14.415Z,74.63
2018-09-05T09:30:43.010Z,75.68
2018-09-05T09:33:11.536Z,75.51
2018-09-05T09:35:39.988Z,74.51
2018-09-05T09:38:08.627Z,74.34
2018-09-05T09:40:37.180Z,73.91
2018-09-05T09:43:05.776Z,74.84
2018-09-05T09:45:34.277Z,74.51
2018-09-05T09:48:03.013Z,74.47
2018-09-05T09:50:31.589Z,75.42
2018-09-05T09:53:00.773Z,72.67
2018-09-05T09:55:29.537Z,72.54
2018-09-05T09:57:58.207Z,71.90
2018-09-05T10:00:32.609Z,73.17
2018-09-05T10:03:06.563Z,72.83
2018-09-05T10:05:40.641Z,71.44
2018-09-05T10:08:15.321Z,71.39
2018-09-05T10:10:48.980Z,71.63
2018-09-05T10:13:22.981Z,72.10
2018-09-05T10:15:56.556Z,72.59
2018-09-05T10:18:26.456Z,72.12
2018-09-05T10:20:55.525Z,72.47
2018-09-05T10:23:23.946Z,72.10
2018-09-05T10:25:52.445Z,71.80
2018-09-05T10:28:21.328Z,72.95
2018-09-05T10:30:50.246Z,71.30
2018-09-05T10:33:19.084Z,72.07
2018-09-05T10:35:47.866Z,70.40
2018-09-05T10:38:16.609Z,70.47
2018-09-05T10:40:45.491Z,71.34
2018-09-05T10:43:14.326Z,71.30
2018-09-05T10:45:43.681Z,71.11
2018-09-05T10:48:13.241Z,71.66
2018-09-05T10:50:42.040Z,70.78
2018-09-05T10:53:10.577Z,70.95
2018-09-05T10:55:39.620Z,71.02
2018-09-05T10:58:08.982Z,69.99
2018-09-05T11:00:37.377Z,69.21
2018-09-05T11:03:06.445Z,69.40
2018-09-05T11:05:35.081Z,67.52
2018-09-05T11:08:03.541Z,68.84
2018-09-05T11:10:32.228Z,67.32
2018-09-05T11:13:01.127Z,66.91
2018-09-05T11:15:29.771Z,65.38
2018-09-05T11:17:59.319Z,66.54
2018-09-05T11:20:27.860Z,66.32
2018-09-05T11:22:56.464Z,65.91
2018-09-05T11:25:24.919Z,66.08
2018-09-05T11:27:53.624Z,66.04
2018-09-05T11:30:22.340Z,64.59
2018-09-05T11:32:51.702Z,65.17
2018-09-05T11:35:20.973Z,63.72
2018-09-05T11:37:49.467Z,63.09
2018-09-05T11:40:17.947Z,61.60
2018-09-05T11:42:46.786Z,63.04
2018-09-05T11:45:16.056Z,61.62
2018-09-05T11:47:44.633Z,61.45
2018-09-05T11:50:13.182Z,60.68
2018-09-05T11:52:41.787Z,60.50
2018-09-05T11:55:10.428Z,59.26
2018-09-05T11:57:38.961Z,59.29
2018-09-05T12:00:07.829Z,60.77
2018-09-05T12:02:37.007Z,60.18
2018-09-05T12:05:05.745Z,60.96
2018-09-05T12:07:34.119Z,60.79
2018-09-05T12:10:02.595Z,60.57
2018-09-05T12:12:31.323Z,59.79
2018-09-05T12:14:59.954Z,59.65
2018-09-05T12:17:29.158Z,59.98
2018-09-05T12:19:57.716Z,59.36
2018-09-05T12:22:26.238Z,58.30
2018-09-05T12:24:54.900Z,57.48
2018-09-05T12:27:23.674Z,57.60
2018-09-05T12:29:52.770Z,57.31
2018-09-05T12:32:21.241Z,55.24
2018-09-05T12:34:49.797Z,56.16
2018-09-05T12:37:18.376Z,54.41
2018-09-05T12:39:46.938Z,56.11
2018-09-05T12:42:15.579Z,55.84
2018-09-05T12:44:44.833Z,54.56
2018-09-05T12:47:13.626Z,51.83
2018-09-05T12:49:42.220Z,50.19
2018-09-05T12:52:11.936Z,50.66
2018-09-05T12:54:40.620Z,49.32
2018-09-05T12:57:15.843Z,49.11
2018-09-05T12:59:44.549Z,47.93
2018-09-05T13:02:13.870Z,48.66
2018-09-05T13:04:42.320Z,48.30
2018-09-05T13:07:10.945Z,47.07
2018-09-05T13:09:39.552Z,48.54
2018-09-05T13:12:08.839Z,46.78
2018-09-05T13:14:37.642Z,45.78
2018-09-05T13:17:06.214Z,45.33
2018-09-05T13:19:34.942Z,45.57
2018-09-05T13:22:03.383Z,42.54
2018-09-05T13:24:31.980Z,40.43
2018-09-05T13:27:00.573Z,38.32
2018-09-05T13:29:29.422Z,38.09
2018-09-05T13:31:57.934Z,36.84
2018-09-05T13:34:27.421Z,37.01
2018-09-05T13:36:56.741Z,36.19
2018-09-05T13:39:25.205Z,35.99
2018-09-05T13:41:53.988Z,35.23
2018-09-05T13:44:23.361Z,33.96
2018-09-05T13:46:51.975Z,33.34
2018-09-05T13:49:20.985Z,33.69
2018-09-05T13:51:54.775Z,33.14
2018-09-05T13:54:23.804Z,33.79
2018-09-05T13:56:52.386Z,32.95
2018-09-05T13:59:21.001Z,32.64
2018-09-05T14:01:49.680Z,32.11
2018-09-05T14:04:18.570Z,32.30
2018-09-05T14:06:47.041Z,31.84
2018-09-05T14:09:15.929Z,32.63
2018-09-05T14:11:44.435Z,35.05
2018-09-05T14:14:13.113Z,36.25
2018-09-05T14:16:41.825Z,37.28
2018-09-05T14:19:10.292Z,38.14
2018-09-05T14:21:38.834Z,38.88
2018-09-05T14:24:08.688Z,39.02
2018-09-05T14:26:38.195Z,38.71
2018-09-05T14:29:06.933Z,39.35
2018-09-05T14:31:36.013Z,40.94
2018-09-05T14:34:04.797Z,41.60
2018-09-05T14:36:36.840Z,42.40
2018-09-05T14:39:08.524Z,43.16
2018-09-05T14:41:37.054Z,42.60
2018-09-05T14:44:05.796Z,44.54
2018-09-05T14:46:34.616Z,45.34
2018-09-05T14:49:03.784Z,45.58
2018-09-05T14:51:32.544Z,45.90
2018-09-05T14:54:01.426Z,47.43
2018-09-05T14:56:29.993Z,47.42
2018-09-05T14:59:05.784Z,45.99
2018-09-05T15:01:34.502Z,46.12
2018-09-05T15:04:03.780Z,47.52
2018-09-05T15:06:32.465Z,46.99
2018-09-05T15:09:01.018Z,46.17
2018-09-05T15:11:29.698Z,46.75
2018-09-05T15:13:58.352Z,45.43
2018-09-05T15:16:26.933Z,46.27
2018-09-05T15:18:55.513Z,46.99
2018-09-05T15:21:24.287Z,46.58
2018-09-05T15:23:53.582Z,46.96
2018-09-05T15:26:22.142Z,47.57
2018-09-05T15:28:50.822Z,48.10
2018-09-05T15:31:19.724Z,47.19
2018-09-05T15:33:48.266Z,46.61
2018-09-05T15:36:16.793Z,47.18
2018-09-05T15:38:45.952Z,47.46
2018-09-05T15:41:14.579Z,47.23
2018-09-05T15:43:43.057Z,48.06
2018-09-05T15:46:11.572Z,48.81
2018-09-05T15:48:40.164Z,47.85
2018-09-05T15:51:08.801Z,48.74
2018-09-05T15:53:37.414Z,48.86
2018-09-05T15:56:06.313Z,48.08
2018-09-05T15:58:35.580Z,48.78
2018-09-05T16:01:04.338Z,49.49
2018-09-05T16:03:32.818Z,48.81
2018-09-05T16:06:01.409Z,48.49
2018-09-05T16:08:30.176Z,48.55
2018-09-05T16:10:59.465Z,48.57
2018-09-05T16:13:28.051Z,48.92
2018-09-05T16:15:57.509Z,49.38
2018-09-05T16:18:27.029Z,50.20
2018-09-05T16:20:56.563Z,49.21
2018-09-05T16:23:25.074Z,49.07
2018-09-05T16:25:53.663Z,50.38
2018-09-05T16:28:22.338Z,49.82
2018-09-05T16:30:50.909Z,50.11
2018-09-05T16:33:19.687Z,50.71
2018-09-05T16:35:49.050Z,50.72
2018-09-05T16:38:17.495Z,50.82
2018-09-05T16:40:46.125Z,49.98
2018-09-05T16:43:15.281Z,50.07
2018-09-05T16:45:52.434Z,50.80
2018-09-05T16:48:21.407Z,51.25
2018-09-05T16:50:50.853Z,50.80
2018-09-05T16:53:19.605Z,52.10
2018-09-05T16:55:48.627Z,52.15
2018-09-05T16:58:18.522Z,52.25
2018-09-05T17:00:50.185Z,52.13
2018-09-05T17:03:18.649Z,52.98
2018-09-05T17:05:48.753Z,51.98
2018-09-05T17:08:17.269Z,53.11
2018-09-05T17:10:45.870Z,52.07
2018-09-05T17:13:14.472Z,52.05
2018-09-05T17:15:43.080Z,52.94
2018-09-05T17:18:15.155Z,52.49
2018-09-05T17:20:49.862Z,52.93
2018-09-05T17:23:19.066Z,52.93
2018-09-05T17:25:47.620Z,52.59
2018-09-05T17:28:16.106Z,52.69
2018-09-05T17:30:44.703Z,53.34
2018-09-05T17:33:14.596Z,54.36
2018-09-05T17:35:43.532Z,54.69
2018-09-05T17:38:12.270Z,53.22
2018-09-05T17:40:41.274Z,53.99
2018-09-05T17:43:09.872Z,53.46
2018-09-05T17:45:38.515Z,52.72
2018-09-05T17:48:07.430Z,54.43
2018-09-05T17:50:35.894Z,54.09
2018-09-05T17:53:04.409Z,54.00
2018-09-05T17:55:33.753Z,55.22
2018-09-05T17:58:02.614Z,54.57
2018-09-05T18:00:31.752Z,55.36
2018-09-05T18:03:00.611Z,55.18
2018-09-05T18:05:29.199Z,54.62
2018-09-05T18:08:00.497Z,54.76
2018-09-05T18:10:29.026Z,54.35
2018-09-05T18:12:57.827Z,54.69
2018-09-05T18:15:26.341Z,55.63
2018-09-05T18:17:55.501Z,54.92
2018-09-05T18:20:24.214Z,55.71
2018-09-05T18:22:54.680Z,54.46
2018-09-05T18:25:23.304Z,55.50
2018-09-05T18:27:52.918Z,54.99
2018-09-05T18:30:22.006Z,55.08
2018-09-05T18:32:50.832Z,55.14
2018-09-05T18:35:19.667Z,55.18
2018-09-05T18:37:48.733Z,55.37
2018-09-05T18:40:17.695Z,56.17
2018-09-05T18:42:46.616Z,55.86
2018-09-05T18:45:20.278Z,56.34
2018-09-05T18:47:49.072Z,56.27
2018-09-05T18:50:17.883Z,56.41
2018-09-05T18:52:48.525Z,56.74
2018-09-05T18:55:17.154Z,57.07
2018-09-05T18:57:46.145Z,57.21
2018-09-05T19:00:14.903Z,56.70
2018-09-05T19:02:44.602Z,57.09
2018-09-05T19:05:13.444Z,56.77
2018-09-05T19:07:42.355Z,56.91
2018-09-05T19:10:10.906Z,57.07
2018-09-05T19:12:39.855Z,57.11
2018-09-05T19:15:08.487Z,58.17
2018-09-05T19:17:37.532Z,58.80
2018-09-05T19:20:07.147Z,57.60
2018-09-05T19:22:36.017Z,58.01
2018-09-05T19:25:04.780Z,57.98
2018-09-05T19:27:33.559Z,57.64
2018-09-05T19:30:02.626Z,57.92
2018-09-05T19:32:31.202Z,58.64
2018-09-05T19:35:01.122Z,59.03
2018-09-05T19:37:30.116Z,59.41
2018-09-05T19:39:58.881Z,59.85
2018-09-05T19:42:27.605Z,59.54
2018-09-05T19:44:56.574Z,58.99
2018-09-05T19:47:25.344Z,58.42
2018-09-05T19:49:54.375Z,58.10
2018-09-05T19:52:23.057Z,57.88
2018-09-05T19:54:51.648Z,58.43
2018-09-05T19:57:21.047Z,59.09
2018-09-05T19:59:53.103Z,59.60
2018-09-05T20:02:21.923Z,58.99
2018-09-05T20:04:51.481Z,59.04
2018-09-05T20:07:21.539Z,58.29
2018-09-05T20:09:50.101Z,59.33
2018-09-05T20:12:19.736Z,59.55
2018-09-05T20:14:48.865Z,59.44
2018-09-05T20:17:18.351Z,59.15
2018-09-05T20:19:47.022Z,59.45
2018-09-05T20:22:15.852Z,60.24
2018-09-05T20:24:44.815Z,60.52
2018-09-05T20:27:14.913Z,61.11
2018-09-05T20:29:43.765Z,61.18
2018-09-05T20:32:12.897Z,60.97
2018-09-05T20:34:41.700Z,61.58
2018-09-05T20:37:10.670Z,60.73
2018-09-05T20:39:40.298Z,61.62
2018-09-05T20:42:08.869Z,61.78
2018-09-05T20:44:38.501Z,61.13
2018-09-05T20:47:07.596Z,61.06
2018-09-05T20:49:36.382Z,61.36
2018-09-05T20:52:05.440Z,61.76
2018-09-05T20:54:33.983Z,62.27
2018-09-05T20:57:03.106Z,61.07
2018-09-05T20:59:31.697Z,61.52
2018-09-05T21:02:01.115Z,60.82
2018-09-05T21:04:30.964Z,61.56
2018-09-05T21:07:00.182Z,61.35
2018-09-05T21:09:29.081Z,61.53
2018-09-05T21:11:57.641Z,62.21
2018-09-05T21:14:26.919Z,61.98
2018-09-05T21:16:56.500Z,61.43
2018-09-05T21:19:30.378Z,61.09
2018-09-05T21:21:59.372Z,61.67
2018-09-05T21:24:28.169Z,62.47
2018-09-05T21:26:57.196Z,62.58
2018-09-05T21:29:25.793Z,63.10
2018-09-05T21:31:54.636Z,63.20
2018-09-05T21:34:23.183Z,64.06
2018-09-05T21:36:51.796Z,64.60
2018-09-05T21:39:20.433Z,63.90
2018-09-05T21:41:49.916Z,64.83
2018-09-05T21:44:19.230Z,65.90
2018-09-05T21:46:48.048Z,65.54
2018-09-05T21:49:16.580Z,66.24
2018-09-05T21:51:45.239Z,66.93
2018-09-05T21:54:13.740Z,67.60
2018-09-05T21:56:42.267Z,67.82
2018-09-05T21:59:11.903Z,68.86
2018-09-05T22:01:40.481Z,68.33
2018-09-05T22:04:08.941Z,69.19
2018-09-05T22:06:37.565Z,69.83
2018-09-05T22:09:09.048Z,70.01
2018-09-05T22:11:37.673Z,69.35
2018-09-05T22:14:06.319Z,70.18
2018-09-05T22:16:35.486Z,69.40
2018-09-05T22:19:04.069Z,70.49
2018-09-05T22:21:32.729Z,70.11
2018-09-05T22:24:01.434Z,71.53
2018-09-05T22:26:31.022Z,71.64
2018-09-05T22:28:59.577Z,71.29
2018-09-05T22:31:28.696Z,71.90
2018-09-05T22:33:57.184Z,73.02
2018-09-05T22:36:25.682Z,73.94
2018-09-05T22:38:54.449Z,75.35
2018-09-05T22:41:23.266Z,75.53
2018-09-05T22:44:02.769Z,76.63
2018-09-05T22:46:42.387Z,76.34
2018-09-05T22:51:34.206Z,75.58
2018-09-05T22:56:24.730Z,74.98
2018-09-05T23:00:00.738Z,75.77
2018-09-05T23:02:47.231Z,75.68
2018-09-05T23:05:57.233Z,75.12
2018-09-05T23:08:37.242Z,76.12
2018-09-05T23:11:17.454Z,76.83
2018-09-05T23:14:33.391Z,76.18
2018-09-05T23:19:26.282Z,76.53
2018-09-05T23:21:55.166Z,76.57
2018-09-05T23:24:23.657Z,77.40
2018-09-05T23:26:52.289Z,77.19
2018-09-05T23:29:20.975Z,78.03
2018-09-05T23:31:49.636Z,78.14
2018-09-05T23:34:18.066Z,79.09
2018-09-05T23:36:46.621Z,79.90
2018-09-05T23:39:15.165Z,80.33
2018-09-05T23:41:43.758Z,80.35
2018-09-05T23:44:12.342Z,81.72
2018-09-05T23:46:41.589Z,81.34
2018-09-05T23:49:10.529Z,82.10
2018-09-05T23:51:39.076Z,82.52
2018-09-05T23:54:08.732Z,82.56
2018-09-05T23:56:37.875Z,82.68
2018-09-05T23:59:07.555Z,83.19
